Hinckley, Illinois
Current Conditions -  °F | °C
As of 2:52 AM on Friday 28 Nov 2014 (Local Time) from KARR Reporting Station
Overcast Overcast  
Wind Chill: 16°   Ceiling: 9500
Heat Index: 16°   Visibility: 10mi
Dew Point:   Wind: 3mph
Humidity: 74%   Direction: 150°SSE
Pressure: 30.36"   Gusts: NA
Location:  41.77°N, 88.64°W
Report Text: KARR 280852Z AUTO 15003KT 10SM OVC095 M09/M13 A3036 RMK AO2 SLP293 T10891128 58003 $
Loading
Personal Weather Stations






























Interactive Weather Map New forecast layout! Learn more

10-Day Weather Forecast

Advertisements
Track Severe Weather on mobile